Terminal Aerodrome Forecast
Issued by NWS

Home | Current Version | Previous Version | Graphics & Text | Print | Product List | Glossary On
Versions: 1 2 3 4 5 6 7 8 9 10 11 12 13 14 15 16 17 18 19 20 21 22 23 24 25 26 27
248
FTUS43 KBIS 211124
TAFJMS
TAF
KJMS 211124Z 2112/2212 13009KT 1/2SM FG OVC002
      TEMPO 2112/2116 1/4SM FG VV001
     FM211600 11005KT 1/2SM FG OVC003
     FM212000 11004KT 1 1/2SM BR VCSH OVC003
     FM220000 VRB03KT 2SM BR OVC003=

USA.gov is the U.S. government's official web portal to all federal, state and local government web resources and services.